National Weather Service Raw Text Product

Displaying AFOS PIL: TAFALO Received: 2018-08-11 08:04 UTC


404 
FTUS43 KDMX 110804 AAC
TAFALO
TAF AMD
KALO 110804Z 1108/1206 VRB02KT 3SM BR SCT004
     FM111300 00000KT 5SM BR FEW200
     FM111400 VRB03KT P6SM SCT250=